Main page
METAR-TAF:

METAR-TAF

Airports :

Rundu Airport

Rundu, Namibia

latitude: 17-57-20S, longitude: 019-43-25E, elevation: 1106 m

Current weather observation

The report was made 28 minutes ago, at 15:00 UTC
Wind 10 kt from the West
Temperature 33°C
Humidity 16%
Pressure 1011 hPa

METAR: FYRU 091500Z AUTO 26010KT //// // ////// 33/04 Q1011

Time: 17:28 (15:28 UTC)

Forecast

The report was made 1 hour and 28 minutes ago, at 14:00 UTC
Forecast valid from 09 at 15 UTC to 10 at 00 UTC
Wind 6 kt from the West
Visibility 10 km or more
Few clouds at a height of 4000 ft, Cumulonimbus.
thunderstorm, light rain
Becoming
from 09 at 17 UTC to 09 at 19 UTC
Wind kt from the North

TAF: FYRU 091400Z 0915/1000 27006KT 9999 -TSRA FEW040CB BECMG 0917/0919 00000KT NSW NSC

Weather observations and forecasts of more than 4000 airports (METAR and TAF reports).

The available stations are represented by yellow and red dots on the map.

Hover mouse over dot to see the name of the station.

Then click to see weather observations and forecasts.

To change the map : click on the green buttons with a black cross to zoom in, on the green button with a dash to zoom out, or on the green arrows for adjacent maps.


METAR-TAF: